sensor_id;sensor_type;location;lat;lon;timestamp;pressure;altitude;pressure_sealevel;temperature;humidity
59073;BME280;44859;51.934;15.554;2023-05-19T00:00:30;100798.06;;;9.28;70.60
59073;BME280;44859;51.934;15.554;2023-05-19T00:03:18;100805.30;;;9.39;69.57
59073;BME280;44859;51.934;15.554;2023-05-19T00:05:52;100826.65;;;9.41;69.32
59073;BME280;44859;51.934;15.554;2023-05-19T00:08:22;100818.24;;;9.20;69.35
59073;BME280;44859;51.934;15.554;2023-05-19T00:11:01;100812.17;;;8.98;69.84
59073;BME280;44859;51.934;15.554;2023-05-19T00:13:29;100808.89;;;8.83;69.92
59073;BME280;44859;51.934;15.554;2023-05-19T00:15:58;100810.17;;;8.73;70.56
59073;BME280;44859;51.934;15.554;2023-05-19T00:18:27;100818.27;;;8.64;70.28
59073;BME280;44859;51.934;15.554;2023-05-19T00:20:56;100814.56;;;8.58;70.61
59073;BME280;44859;51.934;15.554;2023-05-19T00:23:34;100808.58;;;8.52;70.71
59073;BME280;44859;51.934;15.554;2023-05-19T00:26:07;100807.66;;;8.47;70.87
59073;BME280;44859;51.934;15.554;2023-05-19T00:28:35;100805.31;;;8.41;71.17
59073;BME280;44859;51.934;15.554;2023-05-19T00:31:06;100803.30;;;8.37;71.38
59073;BME280;44859;51.934;15.554;2023-05-19T00:33:37;100798.16;;;8.32;71.64
59073;BME280;44859;51.934;15.554;2023-05-19T00:36:14;100795.55;;;8.32;71.64
59073;BME280;44859;51.934;15.554;2023-05-19T00:38:43;100799.69;;;8.35;71.60
59073;BME280;44859;51.934;15.554;2023-05-19T00:41:16;100803.09;;;8.39;71.37
59073;BME280;44859;51.934;15.554;2023-05-19T00:43:45;100807.86;;;8.45;71.80
59073;BME280;44859;51.934;15.554;2023-05-19T00:46:17;100806.88;;;8.50;71.60
59073;BME280;44859;51.934;15.554;2023-05-19T00:48:49;100807.70;;;8.44;71.82
59073;BME280;44859;51.934;15.554;2023-05-19T00:51:25;100803.30;;;8.38;71.67
59073;BME280;44859;51.934;15.554;2023-05-19T00:53:54;100800.98;;;8.32;71.57
59073;BME280;44859;51.934;15.554;2023-05-19T00:56:25;100803.01;;;8.27;72.22
59073;BME280;44859;51.934;15.554;2023-05-19T00:59:04;100804.39;;;8.28;72.02
59073;BME280;44859;51.934;15.554;2023-05-19T01:01:34;100807.50;;;8.30;72.28
59073;BME280;44859;51.934;15.554;2023-05-19T01:04:12;100802.11;;;8.27;72.28
59073;BME280;44859;51.934;15.554;2023-05-19T01:06:48;100804.31;;;8.23;72.20
59073;BME280;44859;51.934;15.554;2023-05-19T01:09:27;100805.74;;;8.22;72.52
59073;BME280;44859;51.934;15.554;2023-05-19T01:12:01;100808.09;;;8.20;72.92
59073;BME280;44859;51.934;15.554;2023-05-19T01:14:33;100804.25;;;8.19;72.94
59073;BME280;44859;51.934;15.554;2023-05-19T01:19:59;100804.88;;;8.30;72.87
59073;BME280;44859;51.934;15.554;2023-05-19T01:31:12;100808.96;;;8.42;72.57
59073;BME280;44859;51.934;15.554;2023-05-19T01:33:46;100807.75;;;8.41;72.81
59073;BME280;44859;51.934;15.554;2023-05-19T01:36:25;100803.47;;;8.38;73.09
59073;BME280;44859;51.934;15.554;2023-05-19T01:39:03;100803.95;;;8.32;73.05
59073;BME280;44859;51.934;15.554;2023-05-19T01:41:35;100810.38;;;8.26;72.98
59073;BME280;44859;51.934;15.554;2023-05-19T01:44:08;100808.73;;;8.14;73.82
59073;BME280;44859;51.934;15.554;2023-05-19T01:46:37;100806.56;;;8.01;73.70
59073;BME280;44859;51.934;15.554;2023-05-19T01:49:08;100807.04;;;7.87;74.18
59073;BME280;44859;51.934;15.554;2023-05-19T01:51:39;100815.50;;;7.76;73.83
59073;BME280;44859;51.934;15.554;2023-05-19T01:54:07;100819.24;;;7.64;74.64
59073;BME280;44859;51.934;15.554;2023-05-19T02:02:59;100815.02;;;7.29;75.46
59073;BME280;44859;51.934;15.554;2023-05-19T02:05:54;100817.01;;;7.26;75.66
59073;BME280;44859;51.934;15.554;2023-05-19T02:11:41;100822.27;;;7.15;76.65
59073;BME280;44859;51.934;15.554;2023-05-19T02:14:24;100821.30;;;7.11;76.53
59073;BME280;44859;51.934;15.554;2023-05-19T02:17:26;100823.83;;;7.06;76.89
59073;BME280;44859;51.934;15.554;2023-05-19T02:19:59;100830.18;;;7.02;77.22
59073;BME280;44859;51.934;15.554;2023-05-19T02:22:31;100830.16;;;7.03;77.20
59073;BME280;44859;51.934;15.554;2023-05-19T02:25:08;100832.80;;;7.02;77.91
59073;BME280;44859;51.934;15.554;2023-05-19T02:27:38;100829.73;;;6.97;78.20
59073;BME280;44859;51.934;15.554;2023-05-19T02:30:27;100828.77;;;6.92;78.56
59073;BME280;44859;51.934;15.554;2023-05-19T02:33:15;100826.54;;;6.90;78.27
59073;BME280;44859;51.934;15.554;2023-05-19T02:35:52;100824.52;;;6.86;78.52
59073;BME280;44859;51.934;15.554;2023-05-19T02:38:27;100821.41;;;6.83;78.79
59073;BME280;44859;51.934;15.554;2023-05-19T02:40:55;100823.89;;;6.82;79.38
59073;BME280;44859;51.934;15.554;2023-05-19T02:43:24;100820.55;;;6.83;79.28
59073;BME280;44859;51.934;15.554;2023-05-19T02:45:55;100818.54;;;6.88;79.51
59073;BME280;44859;51.934;15.554;2023-05-19T02:48:23;100819.63;;;6.96;79.47
59073;BME280;44859;51.934;15.554;2023-05-19T02:50:52;100816.86;;;7.04;79.79
59073;BME280;44859;51.934;15.554;2023-05-19T02:53:20;100819.90;;;7.11;79.52
59073;BME280;44859;51.934;15.554;2023-05-19T02:55:56;100816.85;;;7.14;79.67
59073;BME280;44859;51.934;15.554;2023-05-19T02:58:24;100819.61;;;7.16;80.00
59073;BME280;44859;51.934;15.554;2023-05-19T03:01:06;100818.23;;;7.16;79.74
59073;BME280;44859;51.934;15.554;2023-05-19T03:03:34;100817.77;;;7.12;79.98
59073;BME280;44859;51.934;15.554;2023-05-19T03:06:06;100819.46;;;7.05;79.82
59073;BME280;44859;51.934;15.554;2023-05-19T03:08:35;100817.88;;;6.96;80.14
59073;BME280;44859;51.934;15.554;2023-05-19T03:11:10;100812.71;;;6.92;80.30
59073;BME280;44859;51.934;15.554;2023-05-19T03:13:56;100815.60;;;6.86;80.57
59073;BME280;44859;51.934;15.554;2023-05-19T03:16:33;100818.98;;;6.83;80.79
59073;BME280;44859;51.934;15.554;2023-05-19T03:19:13;100820.73;;;6.83;80.63
59073;BME280;44859;51.934;15.554;2023-05-19T03:21:43;100817.35;;;6.86;81.17
59073;BME280;44859;51.934;15.554;2023-05-19T03:24:17;100820.03;;;6.93;81.44
59073;BME280;44859;51.934;15.554;2023-05-19T03:26:46;100819.70;;;7.01;81.80
59073;BME280;44859;51.934;15.554;2023-05-19T03:29:14;100819.89;;;7.12;81.50
59073;BME280;44859;51.934;15.554;2023-05-19T03:34:29;100821.78;;;7.32;81.65
59073;BME280;44859;51.934;15.554;2023-05-19T03:36:59;100816.38;;;7.40;81.60
59073;BME280;44859;51.934;15.554;2023-05-19T03:39:28;100816.80;;;7.45;81.51
59073;BME280;44859;51.934;15.554;2023-05-19T03:41:56;100816.34;;;7.50;81.40
59073;BME280;44859;51.934;15.554;2023-05-19T03:44:25;100818.35;;;7.55;81.36
59073;BME280;44859;51.934;15.554;2023-05-19T03:46:53;100819.70;;;7.58;81.47
59073;BME280;44859;51.934;15.554;2023-05-19T03:49:27;100821.53;;;7.63;81.16
59073;BME280;44859;51.934;15.554;2023-05-19T03:51:59;100824.56;;;7.69;81.33
59073;BME280;44859;51.934;15.554;2023-05-19T03:54:54;100828.13;;;7.74;81.40
59073;BME280;44859;51.934;15.554;2023-05-19T03:57:27;100828.61;;;7.76;81.28
59073;BME280;44859;51.934;15.554;2023-05-19T03:59:56;100830.33;;;7.78;81.36
59073;BME280;44859;51.934;15.554;2023-05-19T04:02:24;100828.40;;;7.78;81.14
59073;BME280;44859;51.934;15.554;2023-05-19T04:05:03;100834.71;;;7.76;81.55
59073;BME280;44859;51.934;15.554;2023-05-19T04:07:59;100829.59;;;7.70;81.59
59073;BME280;44859;51.934;15.554;2023-05-19T04:10:38;100827.79;;;7.64;81.66
59073;BME280;44859;51.934;15.554;2023-05-19T04:13:17;100828.04;;;7.61;81.77
59073;BME280;44859;51.934;15.554;2023-05-19T04:16:02;100828.61;;;7.59;81.91
59073;BME280;44859;51.934;15.554;2023-05-19T04:18:33;100830.33;;;7.60;81.99
59073;BME280;44859;51.934;15.554;2023-05-19T04:21:02;100824.73;;;7.60;82.04
59073;BME280;44859;51.934;15.554;2023-05-19T04:23:34;100822.83;;;7.59;82.14
59073;BME280;44859;51.934;15.554;2023-05-19T04:26:10;100824.59;;;7.58;82.65
59073;BME280;44859;51.934;15.554;2023-05-19T04:29:08;100822.33;;;7.58;82.36
59073;BME280;44859;51.934;15.554;2023-05-19T04:31:48;100823.92;;;7.57;82.87
59073;BME280;44859;51.934;15.554;2023-05-19T04:34:20;100821.32;;;7.55;82.90
59073;BME280;44859;51.934;15.554;2023-05-19T04:36:58;100825.14;;;7.57;83.01
59073;BME280;44859;51.934;15.554;2023-05-19T04:39:32;100823.36;;;7.58;83.10
59073;BME280;44859;51.934;15.554;2023-05-19T04:42:03;100826.52;;;7.59;83.16
59073;BME280;44859;51.934;15.554;2023-05-19T04:44:49;100823.71;;;7.58;83.32
59073;BME280;44859;51.934;15.554;2023-05-19T04:47:26;100823.61;;;7.64;83.39
59073;BME280;44859;51.934;15.554;2023-05-19T04:50:10;100826.48;;;7.68;83.09
59073;BME280;44859;51.934;15.554;2023-05-19T04:52:52;100826.02;;;7.74;83.41
59073;BME280;44859;51.934;15.554;2023-05-19T04:55:33;100831.82;;;7.82;83.25
59073;BME280;44859;51.934;15.554;2023-05-19T04:58:26;100832.13;;;7.92;83.15
59073;BME280;44859;51.934;15.554;2023-05-19T05:01:25;100826.36;;;7.99;83.25
59073;BME280;44859;51.934;15.554;2023-05-19T05:03:59;100826.10;;;8.04;82.87
59073;BME280;44859;51.934;15.554;2023-05-19T05:06:36;100825.84;;;8.08;83.01
59073;BME280;44859;51.934;15.554;2023-05-19T05:09:10;100827.52;;;8.10;82.96
59073;BME280;44859;51.934;15.554;2023-05-19T05:11:40;100829.90;;;8.14;82.76
59073;BME280;44859;51.934;15.554;2023-05-19T05:14:12;100824.14;;;8.13;82.70
59073;BME280;44859;51.934;15.554;2023-05-19T05:16:49;100824.09;;;8.15;82.69
59073;BME280;44859;51.934;15.554;2023-05-19T05:19:54;100818.95;;;8.19;82.56
59073;BME280;44859;51.934;15.554;2023-05-19T05:22:48;100822.86;;;8.24;82.44
59073;BME280;44859;51.934;15.554;2023-05-19T05:26:02;100824.80;;;8.31;82.45
59073;BME280;44859;51.934;15.554;2023-05-19T05:28:53;100826.42;;;8.36;82.30
59073;BME280;44859;51.934;15.554;2023-05-19T05:32:24;100825.63;;;8.40;82.37
59073;BME280;44859;51.934;15.554;2023-05-19T05:34:57;100828.94;;;8.42;82.40
59073;BME280;44859;51.934;15.554;2023-05-19T05:38:11;100828.19;;;8.43;82.07
59073;BME280;44859;51.934;15.554;2023-05-19T05:40:54;100831.56;;;8.50;81.97
59073;BME280;44859;51.934;15.554;2023-05-19T05:43:31;100834.73;;;8.56;81.85
59073;BME280;44859;51.934;15.554;2023-05-19T05:46:29;100833.65;;;8.65;81.76
59073;BME280;44859;51.934;15.554;2023-05-19T05:52:40;100840.03;;;8.69;81.73
59073;BME280;44859;51.934;15.554;2023-05-19T05:55:14;100840.05;;;8.75;81.08
59073;BME280;44859;51.934;15.554;2023-05-19T05:58:03;100840.10;;;8.81;81.21
59073;BME280;44859;51.934;15.554;2023-05-19T06:00:32;100840.83;;;8.87;81.47
59073;BME280;44859;51.934;15.554;2023-05-19T06:03:03;100840.04;;;8.97;81.53
59073;BME280;44859;51.934;15.554;2023-05-19T06:05:35;100840.09;;;9.09;81.16
59073;BME280;44859;51.934;15.554;2023-05-19T06:08:07;100840.88;;;9.19;81.21
59073;BME280;44859;51.934;15.554;2023-05-19T06:10:57;100840.45;;;9.29;80.81
59073;BME280;44859;51.934;15.554;2023-05-19T06:13:25;100840.82;;;9.35;80.98
59073;BME280;44859;51.934;15.554;2023-05-19T06:15:54;100842.17;;;9.43;80.44
59073;BME280;44859;51.934;15.554;2023-05-19T06:18:22;100842.42;;;9.53;79.92
59073;BME280;44859;51.934;15.554;2023-05-19T06:20:52;100843.11;;;9.66;79.96
59073;BME280;44859;51.934;15.554;2023-05-19T06:23:21;100845.20;;;9.80;79.65
59073;BME280;44859;51.934;15.554;2023-05-19T06:25:58;100848.89;;;9.91;79.86
59073;BME280;44859;51.934;15.554;2023-05-19T06:28:26;100849.67;;;10.00;79.36
59073;BME280;44859;51.934;15.554;2023-05-19T06:31:01;100850.03;;;10.12;79.49
59073;BME280;44859;51.934;15.554;2023-05-19T06:33:33;100848.66;;;10.28;78.87
59073;BME280;44859;51.934;15.554;2023-05-19T06:36:02;100852.91;;;10.45;78.74
59073;BME280;44859;51.934;15.554;2023-05-19T06:38:30;100853.76;;;10.58;78.40
59073;BME280;44859;51.934;15.554;2023-05-19T06:40:59;100854.54;;;10.66;77.97
59073;BME280;44859;51.934;15.554;2023-05-19T06:43:28;100854.06;;;10.75;77.46
59073;BME280;44859;51.934;15.554;2023-05-19T06:46:00;100854.47;;;10.85;77.34
59073;BME280;44859;51.934;15.554;2023-05-19T06:48:29;100853.45;;;10.95;77.69
59073;BME280;44859;51.934;15.554;2023-05-19T06:51:01;100856.37;;;11.02;76.81
59073;BME280;44859;51.934;15.554;2023-05-19T06:53:33;100855.71;;;11.10;76.33
59073;BME280;44859;51.934;15.554;2023-05-19T06:56:05;100853.20;;;11.18;75.58
59073;BME280;44859;51.934;15.554;2023-05-19T06:58:33;100855.67;;;11.17;75.01
59073;BME280;44859;51.934;15.554;2023-05-19T07:01:02;100855.36;;;11.16;75.35
59073;BME280;44859;51.934;15.554;2023-05-19T07:03:31;100852.48;;;11.18;74.80
59073;BME280;44859;51.934;15.554;2023-05-19T07:06:00;100851.89;;;11.25;75.00
59073;BME280;44859;51.934;15.554;2023-05-19T07:08:29;100847.48;;;11.25;74.19
59073;BME280;44859;51.934;15.554;2023-05-19T07:10:58;100848.71;;;11.30;74.02
59073;BME280;44859;51.934;15.554;2023-05-19T07:13:26;100847.36;;;11.34;74.39
59073;BME280;44859;51.934;15.554;2023-05-19T07:15:55;100845.20;;;11.40;74.04
59073;BME280;44859;51.934;15.554;2023-05-19T07:18:23;100837.97;;;11.46;73.63
59073;BME280;44859;51.934;15.554;2023-05-19T07:20:52;100832.85;;;11.56;74.00
59073;BME280;44859;51.934;15.554;2023-05-19T07:23:20;100837.83;;;11.74;73.56
59073;BME280;44859;51.934;15.554;2023-05-19T07:25:53;100840.48;;;11.88;73.46
59073;BME280;44859;51.934;15.554;2023-05-19T07:28:23;100840.84;;;11.97;73.81
59073;BME280;44859;51.934;15.554;2023-05-19T07:30:52;100837.36;;;12.11;73.64
59073;BME280;44859;51.934;15.554;2023-05-19T07:33:20;100841.81;;;12.32;73.18
59073;BME280;44859;51.934;15.554;2023-05-19T07:35:52;100837.29;;;12.53;72.22
59073;BME280;44859;51.934;15.554;2023-05-19T07:38:23;100838.58;;;12.82;72.10
59073;BME280;44859;51.934;15.554;2023-05-19T07:40:54;100833.77;;;13.09;71.41
59073;BME280;44859;51.934;15.554;2023-05-19T07:43:23;100832.16;;;13.38;70.29
59073;BME280;44859;51.934;15.554;2023-05-19T07:45:55;100825.87;;;13.65;69.50
59073;BME280;44859;51.934;15.554;2023-05-19T07:48:31;100824.98;;;13.85;68.35
59073;BME280;44859;51.934;15.554;2023-05-19T07:51:00;100823.73;;;13.89;66.08
59073;BME280;44859;51.934;15.554;2023-05-19T07:53:29;100820.45;;;13.76;66.12
59073;BME280;44859;51.934;15.554;2023-05-19T07:55:58;100819.23;;;13.75;66.52
59073;BME280;44859;51.934;15.554;2023-05-19T07:58:27;100817.31;;;13.59;66.21
59073;BME280;44859;51.934;15.554;2023-05-19T08:01:03;100819.31;;;13.69;65.74
59073;BME280;44859;51.934;15.554;2023-05-19T08:03:32;100820.04;;;13.88;65.03
59073;BME280;44859;51.934;15.554;2023-05-19T08:06:01;100816.50;;;14.00;63.82
59073;BME280;44859;51.934;15.554;2023-05-19T08:08:38;100820.60;;;14.03;63.27
59073;BME280;44859;51.934;15.554;2023-05-19T08:11:07;100816.63;;;14.13;62.11
59073;BME280;44859;51.934;15.554;2023-05-19T08:13:35;100813.16;;;14.11;61.13
59073;BME280;44859;51.934;15.554;2023-05-19T08:16:04;100815.04;;;14.01;61.54
59073;BME280;44859;51.934;15.554;2023-05-19T08:18:35;100814.20;;;14.00;61.27
59073;BME280;44859;51.934;15.554;2023-05-19T08:21:04;100816.83;;;13.93;61.29
59073;BME280;44859;51.934;15.554;2023-05-19T08:23:32;100818.02;;;14.01;60.80
59073;BME280;44859;51.934;15.554;2023-05-19T08:26:01;100819.86;;;14.03;61.37
59073;BME280;44859;51.934;15.554;2023-05-19T08:28:29;100820.88;;;14.12;60.49
59073;BME280;44859;51.934;15.554;2023-05-19T08:30:58;100823.33;;;14.09;60.61
59073;BME280;44859;51.934;15.554;2023-05-19T08:33:29;100822.16;;;14.15;60.42
59073;BME280;44859;51.934;15.554;2023-05-19T08:36:00;100819.29;;;14.28;60.69
59073;BME280;44859;51.934;15.554;2023-05-19T08:38:30;100817.46;;;14.40;60.55
59073;BME280;44859;51.934;15.554;2023-05-19T08:40:58;100816.67;;;14.56;59.99
59073;BME280;44859;51.934;15.554;2023-05-19T08:43:27;100814.13;;;14.62;59.04
59073;BME280;44859;51.934;15.554;2023-05-19T08:45:58;100816.81;;;14.53;59.06
59073;BME280;44859;51.934;15.554;2023-05-19T08:48:28;100821.89;;;14.51;58.98
59073;BME280;44859;51.934;15.554;2023-05-19T08:53:36;100822.41;;;14.40;59.00
59073;BME280;44859;51.934;15.554;2023-05-19T08:56:10;100824.00;;;14.51;58.31
59073;BME280;44859;51.934;15.554;2023-05-19T08:58:40;100825.35;;;14.59;57.85
59073;BME280;44859;51.934;15.554;2023-05-19T09:01:13;100822.25;;;14.62;57.28
59073;BME280;44859;51.934;15.554;2023-05-19T09:03:57;100822.17;;;14.67;57.22
59073;BME280;44859;51.934;15.554;2023-05-19T09:06:31;100821.02;;;14.65;57.09
59073;BME280;44859;51.934;15.554;2023-05-19T09:09:03;100818.15;;;14.73;57.15
59073;BME280;44859;51.934;15.554;2023-05-19T09:11:39;100817.20;;;14.85;56.99
59073;BME280;44859;51.934;15.554;2023-05-19T09:14:08;100809.62;;;14.78;56.49
59073;BME280;44859;51.934;15.554;2023-05-19T09:16:36;100812.83;;;14.70;56.34
59073;BME280;44859;51.934;15.554;2023-05-19T09:19:12;100807.17;;;14.77;56.45
59073;BME280;44859;51.934;15.554;2023-05-19T09:21:43;100808.69;;;14.82;55.86
59073;BME280;44859;51.934;15.554;2023-05-19T09:24:12;100809.96;;;14.88;55.46
59073;BME280;44859;51.934;15.554;2023-05-19T09:26:43;100802.15;;;14.82;55.13
59073;BME280;44859;51.934;15.554;2023-05-19T09:29:16;100804.07;;;14.75;55.57
59073;BME280;44859;51.934;15.554;2023-05-19T09:31:53;100808.55;;;14.78;55.77
59073;BME280;44859;51.934;15.554;2023-05-19T09:34:38;100802.57;;;14.74;55.21
59073;BME280;44859;51.934;15.554;2023-05-19T09:37:11;100803.66;;;14.70;55.51
59073;BME280;44859;51.934;15.554;2023-05-19T09:39:43;100798.41;;;14.57;55.13
59073;BME280;44859;51.934;15.554;2023-05-19T09:42:26;100803.77;;;14.45;55.22
59073;BME280;44859;51.934;15.554;2023-05-19T09:45:03;100802.37;;;14.26;55.19
59073;BME280;44859;51.934;15.554;2023-05-19T09:48:19;100801.61;;;14.24;55.66
59073;BME280;44859;51.934;15.554;2023-05-19T09:53:16;100805.70;;;14.27;55.55
59073;BME280;44859;51.934;15.554;2023-05-19T09:55:45;100809.37;;;14.31;54.49
59073;BME280;44859;51.934;15.554;2023-05-19T09:58:22;100806.40;;;14.16;54.44
59073;BME280;44859;51.934;15.554;2023-05-19T10:01:21;100803.27;;;14.11;54.50
59073;BME280;44859;51.934;15.554;2023-05-19T10:03:51;100800.11;;;14.07;54.57
59073;BME280;44859;51.934;15.554;2023-05-19T10:06:23;100797.70;;;13.98;54.48
59073;BME280;44859;51.934;15.554;2023-05-19T10:08:53;100793.18;;;13.89;54.96
59073;BME280;44859;51.934;15.554;2023-05-19T10:11:22;100800.10;;;13.80;54.97
59073;BME280;44859;51.934;15.554;2023-05-19T10:13:55;100801.48;;;13.73;54.85
59073;BME280;44859;51.934;15.554;2023-05-19T10:16:38;100793.90;;;13.65;55.34
59073;BME280;44859;51.934;15.554;2023-05-19T10:19:07;100796.17;;;13.62;55.90
59073;BME280;44859;51.934;15.554;2023-05-19T10:21:37;100792.56;;;13.56;56.18
59073;BME280;44859;51.934;15.554;2023-05-19T10:24:05;100794.29;;;13.53;56.40
59073;BME280;44859;51.934;15.554;2023-05-19T10:26:44;100786.74;;;13.60;56.55
59073;BME280;44859;51.934;15.554;2023-05-19T10:29:18;100785.50;;;13.75;56.66
59073;BME280;44859;51.934;15.554;2023-05-19T10:31:50;100786.70;;;13.80;57.39
59073;BME280;44859;51.934;15.554;2023-05-19T10:46:32;100777.46;;;13.85;57.00
59073;BME280;44859;51.934;15.554;2023-05-19T10:49:00;100780.92;;;13.68;57.02
59073;BME280;44859;51.934;15.554;2023-05-19T10:51:29;100783.33;;;13.57;57.31
59073;BME280;44859;51.934;15.554;2023-05-19T10:54:02;100779.77;;;13.51;57.39
59073;BME280;44859;51.934;15.554;2023-05-19T10:56:45;100774.20;;;13.53;57.89
59073;BME280;44859;51.934;15.554;2023-05-19T10:59:30;100776.66;;;13.60;58.04
59073;BME280;44859;51.934;15.554;2023-05-19T11:02:07;100772.15;;;13.70;57.64
59073;BME280;44859;51.934;15.554;2023-05-19T11:04:47;100769.27;;;13.83;57.87
59073;BME280;44859;51.934;15.554;2023-05-19T11:07:20;100770.01;;;13.97;57.51
59073;BME280;44859;51.934;15.554;2023-05-19T11:09:53;100771.76;;;14.05;57.02
59073;BME280;44859;51.934;15.554;2023-05-19T11:12:22;100772.25;;;14.10;56.58
59073;BME280;44859;51.934;15.554;2023-05-19T11:14:53;100776.05;;;14.08;56.10
59073;BME280;44859;51.934;15.554;2023-05-19T11:17:23;100783.25;;;14.09;56.07
59073;BME280;44859;51.934;15.554;2023-05-19T11:19:54;100780.93;;;14.16;55.78
59073;BME280;44859;51.934;15.554;2023-05-19T11:22:24;100777.36;;;14.17;55.82
59073;BME280;44859;51.934;15.554;2023-05-19T11:24:54;100779.18;;;14.20;56.14
59073;BME280;44859;51.934;15.554;2023-05-19T11:27:36;100779.66;;;14.18;55.82
59073;BME280;44859;51.934;15.554;2023-05-19T11:32:42;100776.83;;;13.95;56.57
59073;BME280;44859;51.934;15.554;2023-05-19T11:35:15;100779.92;;;14.00;57.34
59073;BME280;44859;51.934;15.554;2023-05-19T11:37:47;100780.19;;;14.02;57.34
59073;BME280;44859;51.934;15.554;2023-05-19T11:40:16;100788.10;;;14.03;57.13
59073;BME280;44859;51.934;15.554;2023-05-19T11:42:46;100787.17;;;14.04;56.94
59073;BME280;44859;51.934;15.554;2023-05-19T11:45:24;100786.39;;;14.06;57.04
59073;BME280;44859;51.934;15.554;2023-05-19T11:47:57;100782.16;;;14.09;57.30
59073;BME280;44859;51.934;15.554;2023-05-19T11:50:33;100781.48;;;14.09;57.18
59073;BME280;44859;51.934;15.554;2023-05-19T11:53:04;100778.71;;;14.00;56.77
59073;BME280;44859;51.934;15.554;2023-05-19T11:55:46;100775.33;;;13.93;57.48
59073;BME280;44859;51.934;15.554;2023-05-19T11:58:25;100781.61;;;13.91;56.89
59073;BME280;44859;51.934;15.554;2023-05-19T12:00:55;100782.88;;;13.87;57.18
59073;BME280;44859;51.934;15.554;2023-05-19T12:03:23;100791.66;;;13.80;56.87
59073;BME280;44859;51.934;15.554;2023-05-19T12:05:55;100793.24;;;13.72;57.02
59073;BME280;44859;51.934;15.554;2023-05-19T12:08:24;100797.84;;;13.64;56.96
59073;BME280;44859;51.934;15.554;2023-05-19T12:10:55;100795.97;;;13.55;56.72
59073;BME280;44859;51.934;15.554;2023-05-19T12:13:24;100793.54;;;13.50;56.80
59073;BME280;44859;51.934;15.554;2023-05-19T12:15:52;100785.20;;;13.51;57.14
59073;BME280;44859;51.934;15.554;2023-05-19T12:18:21;100783.05;;;13.63;57.30
59073;BME280;44859;51.934;15.554;2023-05-19T12:20:49;100779.16;;;13.83;57.22
59073;BME280;44859;51.934;15.554;2023-05-19T12:23:18;100776.96;;;13.99;57.08
59073;BME280;44859;51.934;15.554;2023-05-19T12:25:47;100776.08;;;14.11;57.07
59073;BME280;44859;51.934;15.554;2023-05-19T12:28:18;100777.01;;;14.25;56.47
59073;BME280;44859;51.934;15.554;2023-05-19T12:30:48;100769.45;;;14.24;55.42
59073;BME280;44859;51.934;15.554;2023-05-19T12:33:19;100768.46;;;14.33;55.36
59073;BME280;44859;51.934;15.554;2023-05-19T12:35:53;100769.31;;;14.45;55.13
59073;BME280;44859;51.934;15.554;2023-05-19T12:38:22;100769.98;;;14.53;55.01
59073;BME280;44859;51.934;15.554;2023-05-19T12:40:50;100769.03;;;14.54;54.75
59073;BME280;44859;51.934;15.554;2023-05-19T12:43:22;100772.74;;;14.43;54.72
59073;BME280;44859;51.934;15.554;2023-05-19T12:45:51;100768.45;;;14.37;55.01
59073;BME280;44859;51.934;15.554;2023-05-19T12:48:22;100768.65;;;14.36;55.20
59073;BME280;44859;51.934;15.554;2023-05-19T12:50:53;100768.47;;;14.37;55.49
59073;BME280;44859;51.934;15.554;2023-05-19T12:53:25;100768.17;;;14.25;55.35
59073;BME280;44859;51.934;15.554;2023-05-19T12:55:54;100766.18;;;14.29;55.77
59073;BME280;44859;51.934;15.554;2023-05-19T12:58:32;100769.40;;;14.39;55.93
59073;BME280;44859;51.934;15.554;2023-05-19T13:01:01;100768.38;;;14.42;55.91
59073;BME280;44859;51.934;15.554;2023-05-19T13:03:29;100767.77;;;14.48;56.10
59073;BME280;44859;51.934;15.554;2023-05-19T13:05:58;100766.15;;;14.45;56.32
59073;BME280;44859;51.934;15.554;2023-05-19T13:08:30;100762.52;;;14.39;56.22
59073;BME280;44859;51.934;15.554;2023-05-19T13:10:58;100763.38;;;14.29;56.34
59073;BME280;44859;51.934;15.554;2023-05-19T13:13:26;100760.28;;;14.09;56.45
59073;BME280;44859;51.934;15.554;2023-05-19T13:15:55;100759.48;;;14.00;57.11
59073;BME280;44859;51.934;15.554;2023-05-19T13:18:23;100757.85;;;13.89;57.49
59073;BME280;44859;51.934;15.554;2023-05-19T13:21:03;100752.91;;;13.93;57.75
59073;BME280;44859;51.934;15.554;2023-05-19T13:23:32;100752.25;;;14.03;57.82
59073;BME280;44859;51.934;15.554;2023-05-19T13:26:04;100752.63;;;14.11;57.89
59073;BME280;44859;51.934;15.554;2023-05-19T13:28:33;100753.41;;;14.20;57.93
59073;BME280;44859;51.934;15.554;2023-05-19T13:31:01;100752.85;;;14.24;57.74
59073;BME280;44859;51.934;15.554;2023-05-19T13:33:34;100757.83;;;14.16;57.36
59073;BME280;44859;51.934;15.554;2023-05-19T13:36:02;100759.80;;;14.08;57.50
59073;BME280;44859;51.934;15.554;2023-05-19T13:38:34;100760.58;;;14.06;57.75
59073;BME280;44859;51.934;15.554;2023-05-19T13:41:02;100760.25;;;14.06;58.08
59073;BME280;44859;51.934;15.554;2023-05-19T13:43:31;100759.84;;;14.11;57.99
59073;BME280;44859;51.934;15.554;2023-05-19T13:46:09;100760.73;;;14.10;58.24
59073;BME280;44859;51.934;15.554;2023-05-19T13:48:37;100765.11;;;14.15;58.49
59073;BME280;44859;51.934;15.554;2023-05-19T13:51:05;100762.77;;;14.16;58.28
59073;BME280;44859;51.934;15.554;2023-05-19T13:53:34;100763.76;;;14.18;58.49
59073;BME280;44859;51.934;15.554;2023-05-19T13:56:02;100761.73;;;14.15;58.81
59073;BME280;44859;51.934;15.554;2023-05-19T13:58:32;100762.38;;;14.06;59.04
59073;BME280;44859;51.934;15.554;2023-05-19T14:01:01;100767.02;;;13.93;59.29
59073;BME280;44859;51.934;15.554;2023-05-19T14:03:30;100763.29;;;13.90;59.20
59073;BME280;44859;51.934;15.554;2023-05-19T14:06:08;100763.19;;;13.85;59.63